SIA950 WSSS-WIII
Flight info
| Callsign | SIA950 |
|---|---|
| Flight time | N/A |
| Altitude | 34000 |
| Route | ANITO1C ANITO B470 BUNIK BUNIK2M |
| Aircraft | B77W/H-SDE1E2E3FGHIJ2J3J4J5M1RWXYZ/LB1D1 |
Departure
| Time | 2026-05-06 12:45 |
|---|---|
| Airport | Singapore Changi Airport (WSSS) |
Arrival
| Time | N/A |
|---|---|
| Airport | Soekarno-Hatta International Airport (WIII) |
| Time | Latitude | Longitude | Altitude | Speed | Heading |
|---|---|---|---|---|---|
| 2026-05-06 12:13 | 1.35427 | 103.98434 | 41 ft | 0 kts | 67° |
| 2026-05-06 12:33 | 1.35425 | 103.98428 | 41 ft | 2 kts | 67° |
| 2026-05-06 12:33 | 1.35419 | 103.98414 | 40 ft | 2 kts | 67° |
| 2026-05-06 12:34 | 1.35413 | 103.98399 | 40 ft | 2 kts | 67° |
| 2026-05-06 12:34 | 1.35409 | 103.98390 | 40 ft | 2 kts | 67° |
| 2026-05-06 12:34 | 1.35401 | 103.98372 | 39 ft | 2 kts | 67° |
| 2026-05-06 12:34 | 1.35395 | 103.98358 | 38 ft | 2 kts | 67° |
| 2026-05-06 12:35 | 1.35391 | 103.98349 | 38 ft | 2 kts | 67° |
| 2026-05-06 12:35 | 1.35387 | 103.98340 | 38 ft | 1 kts | 67° |
| 2026-05-06 12:35 | 1.35380 | 103.98327 | 37 ft | 2 kts | 47° |
| 2026-05-06 12:35 | 1.35369 | 103.98319 | 37 ft | 2 kts | 25° |
| 2026-05-06 12:36 | 1.35355 | 103.98314 | 37 ft | 2 kts | 6° |
| 2026-05-06 12:36 | 1.35340 | 103.98314 | 37 ft | 2 kts | 346° |
| 2026-05-06 12:36 | 1.35331 | 103.98317 | 37 ft | 0 kts | 338° |
| 2026-05-06 12:38 | 1.35332 | 103.98316 | 37 ft | 1 kts | 338° |
| 2026-05-06 12:38 | 1.35359 | 103.98307 | 37 ft | 6 kts | 341° |
| 2026-05-06 12:38 | 1.35420 | 103.98286 | 36 ft | 11 kts | 348° |
| 2026-05-06 12:39 | 1.35545 | 103.98314 | 37 ft | 16 kts | 22° |
| 2026-05-06 12:39 | 1.35621 | 103.98347 | 35 ft | 19 kts | 23° |
| 2026-05-06 12:39 | 1.35784 | 103.98415 | 37 ft | 17 kts | 23° |
| 2026-05-06 12:39 | 1.35899 | 103.98463 | 37 ft | 17 kts | 23° |
| 2026-05-06 12:40 | 1.36015 | 103.98512 | 38 ft | 18 kts | 23° |
| 2026-05-06 12:40 | 1.36092 | 103.98544 | 38 ft | 17 kts | 23° |
| 2026-05-06 12:40 | 1.36211 | 103.98595 | 37 ft | 19 kts | 23° |
| 2026-05-06 12:40 | 1.36335 | 103.98647 | 37 ft | 19 kts | 23° |
| 2026-05-06 12:41 | 1.36469 | 103.98704 | 35 ft | 21 kts | 23° |
| 2026-05-06 12:41 | 1.36612 | 103.98764 | 34 ft | 22 kts | 23° |
| 2026-05-06 12:41 | 1.36759 | 103.98826 | 34 ft | 23 kts | 23° |
| 2026-05-06 12:41 | 1.36895 | 103.98884 | 34 ft | 15 kts | 23° |
| 2026-05-06 12:42 | 1.36952 | 103.98985 | 34 ft | 13 kts | 108° |
| 2026-05-06 12:42 | 1.36917 | 103.99074 | 34 ft | 14 kts | 112° |
| 2026-05-06 12:42 | 1.36875 | 103.99171 | 35 ft | 16 kts | 113° |
| 2026-05-06 12:42 | 1.36827 | 103.99284 | 36 ft | 18 kts | 113° |
| 2026-05-06 12:43 | 1.36791 | 103.99368 | 37 ft | 20 kts | 113° |
| 2026-05-06 12:43 | 1.36733 | 103.99503 | 39 ft | 22 kts | 113° |
| 2026-05-06 12:43 | 1.36642 | 103.99717 | 36 ft | 26 kts | 113° |
| 2026-05-06 12:43 | 1.36565 | 103.99839 | 34 ft | 18 kts | 167° |
| 2026-05-06 12:44 | 1.36483 | 103.99824 | 34 ft | 17 kts | 201° |
| 2026-05-06 12:44 | 1.36378 | 103.99853 | 34 ft | 15 kts | 151° |
| 2026-05-06 12:44 | 1.36245 | 103.99889 | 36 ft | 13 kts | 173° |
| 2026-05-06 12:44 | 1.36186 | 103.99888 | 36 ft | 12 kts | 193° |
| 2026-05-06 12:45 | 1.36071 | 103.99846 | 37 ft | 21 kts | 202° |
| 2026-05-06 12:45 | 1.35682 | 103.99682 | 41 ft | 106 kts | 203° |
| 2026-05-06 12:45 | 1.33559 | 103.98779 | 1117 ft | 183 kts | 202° |
| 2026-05-06 12:46 | 1.32340 | 103.98271 | 1760 ft | 203 kts | 201° |
| 2026-05-06 12:46 | 1.31401 | 103.97881 | 1789 ft | 235 kts | 202° |
| 2026-05-06 12:46 | 1.29801 | 103.97197 | 1543 ft | 258 kts | 202° |
| 2026-05-06 12:46 | 1.27568 | 103.96245 | 1503 ft | 265 kts | 202° |
| 2026-05-06 12:47 | 1.25820 | 103.95508 | 1691 ft | 286 kts | 202° |
| 2026-05-06 12:47 | 1.24584 | 103.94993 | 2416 ft | 281 kts | 201° |
| 2026-05-06 12:47 | 1.22696 | 103.94591 | 2550 ft | 276 kts | 178° |
| 2026-05-06 12:47 | 1.20710 | 103.94924 | 3087 ft | 297 kts | 165° |
| 2026-05-06 12:48 | 1.18763 | 103.95409 | 3820 ft | 284 kts | 165° |
| 2026-05-06 12:48 | 1.16855 | 103.95890 | 3984 ft | 278 kts | 165° |
| 2026-05-06 12:48 | 1.14996 | 103.96354 | 4003 ft | 274 kts | 165° |
| 2026-05-06 12:48 | 1.13134 | 103.96814 | 4006 ft | 273 kts | 165° |
| 2026-05-06 12:49 | 1.10717 | 103.97591 | 4000 ft | 271 kts | 149° |
| 2026-05-06 12:49 | 1.09627 | 103.98305 | 4170 ft | 290 kts | 143° |
| 2026-05-06 12:49 | 1.08024 | 103.99521 | 5293 ft | 288 kts | 142° |
| 2026-05-06 12:49 | 1.05950 | 104.01124 | 5927 ft | 282 kts | 142° |
| 2026-05-06 12:50 | 1.04385 | 104.02331 | 5997 ft | 281 kts | 142° |
| 2026-05-06 12:50 | 1.03402 | 104.03158 | 5994 ft | 279 kts | 132° |
| 2026-05-06 12:50 | 1.02344 | 104.04780 | 6007 ft | 280 kts | 115° |
| 2026-05-06 12:50 | 1.01284 | 104.07159 | 6005 ft | 280 kts | 112° |
| 2026-05-06 12:51 | 1.00784 | 104.08345 | 6007 ft | 280 kts | 112° |
| 2026-05-06 12:51 | 0.99774 | 104.10738 | 6008 ft | 281 kts | 112° |
| 2026-05-06 12:51 | 0.99264 | 104.11941 | 6009 ft | 280 kts | 112° |
| 2026-05-06 12:51 | 0.98492 | 104.13768 | 6121 ft | 297 kts | 112° |
| 2026-05-06 12:52 | 0.97703 | 104.15640 | 7363 ft | 293 kts | 112° |
| 2026-05-06 12:52 | 0.96942 | 104.17449 | 8721 ft | 284 kts | 112° |
| 2026-05-06 12:52 | 0.96184 | 104.19247 | 9712 ft | 288 kts | 112° |
| 2026-05-06 12:52 | 0.95131 | 104.21745 | 10791 ft | 303 kts | 112° |
| 2026-05-06 12:53 | 0.94498 | 104.23033 | 11231 ft | 314 kts | 119° |
| 2026-05-06 12:53 | 0.93334 | 104.24934 | 11882 ft | 331 kts | 121° |
| 2026-05-06 12:53 | 0.92084 | 104.26928 | 12563 ft | 346 kts | 121° |
| 2026-05-06 12:53 | 0.90347 | 104.29708 | 13463 ft | 365 kts | 121° |
| 2026-05-06 12:54 | 0.89446 | 104.31153 | 13888 ft | 375 kts | 120° |
| 2026-05-06 12:54 | 0.87572 | 104.34162 | 14709 ft | 393 kts | 121° |
| 2026-05-06 12:54 | 0.86608 | 104.35711 | 15185 ft | 399 kts | 120° |
| 2026-05-06 12:54 | 0.85117 | 104.38105 | 15733 ft | 405 kts | 120° |
| 2026-05-06 12:55 | 0.83642 | 104.40473 | 15840 ft | 407 kts | 120° |
| 2026-05-06 12:55 | 0.81638 | 104.43674 | 15815 ft | 405 kts | 122° |
| 2026-05-06 12:55 | 0.80568 | 104.45207 | 15832 ft | 405 kts | 124° |
| 2026-05-06 12:55 | 0.78371 | 104.48260 | 15842 ft | 405 kts | 124° |
| 2026-05-06 12:56 | 0.77263 | 104.49802 | 15828 ft | 405 kts | 124° |
| 2026-05-06 12:56 | 0.75623 | 104.52092 | 15829 ft | 405 kts | 124° |
| 2026-05-06 12:56 | 0.73845 | 104.54265 | 15832 ft | 407 kts | 133° |
| 2026-05-06 12:56 | 0.71686 | 104.56103 | 15824 ft | 409 kts | 143° |
| 2026-05-06 12:57 | 0.69209 | 104.57522 | 15819 ft | 410 kts | 154° |
| 2026-05-06 12:57 | 0.66534 | 104.58494 | 15828 ft | 412 kts | 161° |
| 2026-05-06 12:57 | 0.62774 | 104.59625 | 16301 ft | 427 kts | 161° |
| 2026-05-06 12:57 | 0.59952 | 104.60466 | 17417 ft | 423 kts | 161° |
| 2026-05-06 12:58 | 0.58082 | 104.61023 | 18110 ft | 421 kts | 161° |
| 2026-05-06 12:58 | 0.54342 | 104.62137 | 19133 ft | 428 kts | 161° |
| 2026-05-06 12:58 | 0.51437 | 104.63002 | 19809 ft | 434 kts | 161° |
| 2026-05-06 12:58 | 0.49506 | 104.63577 | 20291 ft | 437 kts | 161° |
| 2026-05-06 12:59 | 0.46585 | 104.64445 | 21019 ft | 441 kts | 161° |
| 2026-05-06 12:59 | 0.43609 | 104.65328 | 21720 ft | 445 kts | 161° |
| 2026-05-06 12:59 | 0.40653 | 104.66203 | 22405 ft | 449 kts | 161° |
| 2026-05-06 12:59 | 0.36618 | 104.67398 | 23313 ft | 454 kts | 161° |
| 2026-05-06 13:00 | 0.34597 | 104.67997 | 23750 ft | 457 kts | 161° |
| 2026-05-06 13:00 | 0.31536 | 104.68903 | 24403 ft | 461 kts | 161° |
| 2026-05-06 13:00 | 0.27404 | 104.70127 | 25251 ft | 467 kts | 161° |
| 2026-05-06 13:00 | 0.25314 | 104.70746 | 25667 ft | 470 kts | 161° |
| 2026-05-06 13:01 | 0.22165 | 104.71678 | 26292 ft | 474 kts | 162° |
| 2026-05-06 13:01 | 0.18982 | 104.72621 | 26926 ft | 478 kts | 162° |
| 2026-05-06 13:01 | 0.14694 | 104.73891 | 27757 ft | 484 kts | 161° |
| 2026-05-06 13:01 | 0.12533 | 104.74532 | 28160 ft | 486 kts | 161° |
| 2026-05-06 13:02 | 0.09280 | 104.75497 | 28747 ft | 491 kts | 162° |
| 2026-05-06 13:02 | 0.06002 | 104.76471 | 29354 ft | 494 kts | 162° |
| 2026-05-06 13:02 | 0.02699 | 104.77452 | 30126 ft | 494 kts | 162° |
| 2026-05-06 13:02 | -0.00599 | 104.78431 | 30999 ft | 490 kts | 162° |
| 2026-05-06 13:03 | -0.03862 | 104.79400 | 31831 ft | 487 kts | 162° |
| 2026-05-06 13:03 | -0.07104 | 104.80362 | 32581 ft | 486 kts | 162° |
| 2026-05-06 13:03 | -0.10350 | 104.81326 | 33351 ft | 484 kts | 162° |
| 2026-05-06 13:03 | -0.14692 | 104.82616 | 33844 ft | 488 kts | 162° |
| 2026-05-06 13:04 | -0.16865 | 104.83261 | 33848 ft | 487 kts | 162° |
| 2026-05-06 13:04 | -0.23303 | 104.85173 | 33848 ft | 484 kts | 162° |
| 2026-05-06 13:05 | -0.29620 | 104.87648 | 33845 ft | 482 kts | 149° |
| 2026-05-06 13:05 | -0.36139 | 104.91941 | 33847 ft | 481 kts | 144° |
| 2026-05-06 13:06 | -0.40752 | 104.95064 | 33847 ft | 481 kts | 144° |
| 2026-05-06 13:06 | -0.47237 | 104.99455 | 33847 ft | 480 kts | 144° |
| 2026-05-06 13:07 | -0.51831 | 105.02564 | 33847 ft | 479 kts | 144° |
| 2026-05-06 13:07 | -0.57382 | 105.06320 | 33847 ft | 480 kts | 144° |
| 2026-05-06 13:08 | -0.62901 | 105.10055 | 33847 ft | 481 kts | 144° |
| 2026-05-06 13:08 | -0.68475 | 105.13827 | 33847 ft | 481 kts | 144° |
| 2026-05-06 13:09 | -0.74928 | 105.18194 | 33847 ft | 482 kts | 144° |
| 2026-05-06 13:09 | -0.80503 | 105.21967 | 33842 ft | 481 kts | 144° |
| 2026-05-06 13:10 | -0.85099 | 105.25077 | 33836 ft | 480 kts | 144° |
| 2026-05-06 13:10 | -0.90639 | 105.28827 | 33831 ft | 480 kts | 144° |
| 2026-05-06 13:11 | -0.96167 | 105.32568 | 33833 ft | 481 kts | 144° |
| 2026-05-06 13:11 | -1.02655 | 105.36959 | 33833 ft | 481 kts | 144° |
| 2026-05-06 13:12 | -1.07297 | 105.40101 | 33833 ft | 481 kts | 144° |
| 2026-05-06 13:12 | -1.12859 | 105.43866 | 33833 ft | 481 kts | 144° |
| 2026-05-06 13:13 | -1.18430 | 105.47637 | 33834 ft | 481 kts | 144° |
| 2026-05-06 13:13 | -1.23997 | 105.51405 | 33840 ft | 481 kts | 144° |
| 2026-05-06 13:14 | -1.29533 | 105.55153 | 33844 ft | 481 kts | 144° |
| 2026-05-06 13:14 | -1.35105 | 105.58926 | 33846 ft | 482 kts | 144° |
| 2026-05-06 13:15 | -1.40652 | 105.62682 | 33846 ft | 482 kts | 144° |
| 2026-05-06 13:15 | -1.46210 | 105.66444 | 33849 ft | 482 kts | 144° |
| 2026-05-06 13:16 | -1.51777 | 105.70214 | 33849 ft | 482 kts | 144° |
| 2026-05-06 13:16 | -1.57351 | 105.73989 | 33849 ft | 482 kts | 144° |
| 2026-05-06 13:17 | -1.62908 | 105.77752 | 33849 ft | 482 kts | 144° |
| 2026-05-06 13:17 | -1.68478 | 105.81524 | 33850 ft | 482 kts | 144° |
| 2026-05-06 13:18 | -1.74994 | 105.85938 | 33853 ft | 483 kts | 144° |
| 2026-05-06 13:18 | -1.79661 | 105.89099 | 33854 ft | 483 kts | 144° |
| 2026-05-06 13:19 | -1.85245 | 105.92882 | 33858 ft | 483 kts | 144° |
| 2026-05-06 13:19 | -1.90815 | 105.96655 | 33860 ft | 483 kts | 144° |
| 2026-05-06 13:20 | -1.97348 | 106.01081 | 33862 ft | 483 kts | 144° |
| 2026-05-06 13:20 | -2.02005 | 106.04237 | 33861 ft | 482 kts | 144° |
| 2026-05-06 13:21 | -2.07575 | 106.08011 | 33858 ft | 481 kts | 144° |
| 2026-05-06 13:21 | -2.13128 | 106.11767 | 33848 ft | 482 kts | 146° |
| 2026-05-06 13:21 | -2.17131 | 106.13814 | 33848 ft | 485 kts | 158° |
| 2026-05-06 13:22 | -2.20370 | 106.14795 | 33847 ft | 486 kts | 167° |
| 2026-05-06 13:22 | -2.25963 | 106.15806 | 33856 ft | 487 kts | 169° |
| 2026-05-06 13:23 | -2.32639 | 106.16940 | 33861 ft | 486 kts | 169° |
| 2026-05-06 13:23 | -2.40469 | 106.18275 | 33862 ft | 486 kts | 169° |
| 2026-05-06 13:24 | -2.47175 | 106.19420 | 33860 ft | 485 kts | 169° |
| 2026-05-06 13:24 | -2.52732 | 106.20370 | 33864 ft | 485 kts | 169° |
| 2026-05-06 13:25 | -2.59424 | 106.21514 | 33870 ft | 485 kts | 169° |
| 2026-05-06 13:25 | -2.66081 | 106.22652 | 33873 ft | 485 kts | 169° |
| 2026-05-06 13:26 | -2.72775 | 106.23798 | 33873 ft | 485 kts | 169° |
| 2026-05-06 13:26 | -2.79467 | 106.24944 | 33872 ft | 484 kts | 169° |
| 2026-05-06 13:27 | -2.86109 | 106.26080 | 33871 ft | 484 kts | 169° |
| 2026-05-06 13:27 | -2.92793 | 106.27224 | 33864 ft | 483 kts | 169° |
| 2026-05-06 13:28 | -3.00532 | 106.28549 | 33853 ft | 483 kts | 169° |
| 2026-05-06 13:28 | -3.06073 | 106.29498 | 33854 ft | 483 kts | 169° |
| 2026-05-06 13:29 | -3.12742 | 106.30640 | 33852 ft | 483 kts | 169° |
| 2026-05-06 13:29 | -3.20538 | 106.31976 | 33850 ft | 483 kts | 169° |
| 2026-05-06 13:30 | -3.26058 | 106.32922 | 33846 ft | 483 kts | 169° |
| 2026-05-06 13:30 | -3.33847 | 106.34256 | 33846 ft | 482 kts | 169° |
| 2026-05-06 13:31 | -3.39396 | 106.35207 | 33847 ft | 482 kts | 169° |
| 2026-05-06 13:31 | -3.46018 | 106.36341 | 33848 ft | 481 kts | 169° |
| 2026-05-06 13:32 | -3.53713 | 106.37660 | 33848 ft | 481 kts | 169° |
| 2026-05-06 13:32 | -3.59265 | 106.38612 | 33848 ft | 481 kts | 169° |
| 2026-05-06 13:33 | -3.65896 | 106.39781 | 33849 ft | 481 kts | 168° |
| 2026-05-06 13:33 | -3.72487 | 106.41022 | 33849 ft | 481 kts | 168° |
| 2026-05-06 13:34 | -3.80198 | 106.42471 | 33848 ft | 481 kts | 168° |
| 2026-05-06 13:34 | -3.85732 | 106.43510 | 33846 ft | 480 kts | 168° |
| 2026-05-06 13:35 | -3.93414 | 106.44949 | 33848 ft | 480 kts | 168° |
| 2026-05-06 13:35 | -3.98922 | 106.45981 | 33846 ft | 480 kts | 168° |
| 2026-05-06 13:36 | -4.05523 | 106.47218 | 33847 ft | 480 kts | 168° |
| 2026-05-06 13:36 | -4.12108 | 106.48450 | 33850 ft | 480 kts | 168° |
| 2026-05-06 13:37 | -4.18712 | 106.49687 | 33837 ft | 477 kts | 168° |
| 2026-05-06 13:37 | -4.22009 | 106.50304 | 33259 ft | 472 kts | 168° |
| 2026-05-06 13:37 | -4.25251 | 106.50912 | 32298 ft | 475 kts | 168° |
| 2026-05-06 13:37 | -4.28487 | 106.51518 | 31463 ft | 476 kts | 168° |
| 2026-05-06 13:38 | -4.31766 | 106.52133 | 30637 ft | 476 kts | 168° |
| 2026-05-06 13:38 | -4.35009 | 106.52741 | 30140 ft | 469 kts | 167° |
| 2026-05-06 13:38 | -4.38163 | 106.53331 | 29675 ft | 462 kts | 168° |
| 2026-05-06 13:38 | -4.41339 | 106.53926 | 29164 ft | 469 kts | 167° |
| 2026-05-06 13:39 | -4.44597 | 106.54538 | 28605 ft | 476 kts | 167° |
| 2026-05-06 13:39 | -4.47837 | 106.55145 | 28062 ft | 473 kts | 167° |
| 2026-05-06 13:39 | -4.51057 | 106.55748 | 27512 ft | 469 kts | 167° |
| 2026-05-06 13:39 | -4.54278 | 106.56351 | 26951 ft | 464 kts | 167° |
| 2026-05-06 13:40 | -4.58484 | 106.57140 | 26206 ft | 458 kts | 167° |
| 2026-05-06 13:40 | -4.60598 | 106.57536 | 25825 ft | 455 kts | 167° |
| 2026-05-06 13:40 | -4.63711 | 106.58119 | 25266 ft | 451 kts | 167° |
| 2026-05-06 13:40 | -4.66796 | 106.58697 | 24904 ft | 442 kts | 167° |
| 2026-05-06 13:41 | -4.69804 | 106.59262 | 24872 ft | 444 kts | 167° |
| 2026-05-06 13:41 | -4.72882 | 106.59840 | 24866 ft | 447 kts | 167° |
| 2026-05-06 13:41 | -4.75925 | 106.60411 | 24865 ft | 447 kts | 167° |
| 2026-05-06 13:41 | -4.79010 | 106.60990 | 24865 ft | 447 kts | 167° |
| 2026-05-06 13:42 | -4.82060 | 106.61562 | 24863 ft | 442 kts | 167° |
| 2026-05-06 13:42 | -4.85014 | 106.62152 | 24856 ft | 426 kts | 163° |
| 2026-05-06 13:42 | -4.87777 | 106.63107 | 24860 ft | 412 kts | 154° |
| 2026-05-06 13:42 | -4.90384 | 106.64270 | 24862 ft | 403 kts | 153° |
| 2026-05-06 13:43 | -4.92899 | 106.65414 | 24864 ft | 397 kts | 153° |
| 2026-05-06 13:43 | -4.95458 | 106.66581 | 24868 ft | 396 kts | 153° |
| 2026-05-06 13:43 | -4.97964 | 106.67725 | 24871 ft | 396 kts | 153° |
| 2026-05-06 13:43 | -5.00482 | 106.68874 | 24870 ft | 396 kts | 153° |
| 2026-05-06 13:44 | -5.02989 | 106.70019 | 24872 ft | 396 kts | 153° |
| 2026-05-06 13:44 | -5.05512 | 106.71172 | 24870 ft | 396 kts | 153° |
| 2026-05-06 13:44 | -5.08875 | 106.72710 | 24864 ft | 397 kts | 153° |
| 2026-05-06 13:44 | -5.10539 | 106.73470 | 24862 ft | 397 kts | 153° |
| 2026-05-06 13:45 | -5.13916 | 106.75014 | 24860 ft | 397 kts | 153° |
| 2026-05-06 13:45 | -5.18099 | 106.76925 | 24853 ft | 396 kts | 153° |
| 2026-05-06 13:45 | -5.21422 | 106.78431 | 24219 ft | 394 kts | 153° |
| 2026-05-06 13:46 | -5.23089 | 106.79185 | 23620 ft | 400 kts | 153° |
| 2026-05-06 13:46 | -5.25664 | 106.80351 | 22909 ft | 403 kts | 153° |
| 2026-05-06 13:46 | -5.28203 | 106.81500 | 22456 ft | 399 kts | 153° |
| 2026-05-06 13:46 | -5.31557 | 106.83019 | 21949 ft | 392 kts | 153° |
| 2026-05-06 13:47 | -5.34035 | 106.84140 | 21509 ft | 389 kts | 153° |
| 2026-05-06 13:47 | -5.35676 | 106.84883 | 21301 ft | 384 kts | 153° |
| 2026-05-06 13:47 | -5.38101 | 106.85982 | 21168 ft | 388 kts | 153° |
| 2026-05-06 13:47 | -5.40595 | 106.87090 | 21067 ft | 396 kts | 156° |
| 2026-05-06 13:48 | -5.43360 | 106.87894 | 20766 ft | 419 kts | 167° |
| 2026-05-06 13:48 | -5.46250 | 106.88166 | 20243 ft | 424 kts | 179° |
| 2026-05-06 13:48 | -5.49187 | 106.87852 | 19682 ft | 424 kts | 191° |
| 2026-05-06 13:48 | -5.51987 | 106.86952 | 19174 ft | 422 kts | 202° |
| 2026-05-06 13:49 | -5.54515 | 106.85508 | 18857 ft | 414 kts | 215° |
| 2026-05-06 13:49 | -5.56652 | 106.83639 | 18559 ft | 398 kts | 225° |
| 2026-05-06 13:49 | -5.58496 | 106.81646 | 18229 ft | 380 kts | 226° |
| 2026-05-06 13:49 | -5.60241 | 106.79733 | 17788 ft | 368 kts | 226° |
| 2026-05-06 13:50 | -5.61958 | 106.77850 | 17173 ft | 363 kts | 227° |
| 2026-05-06 13:50 | -5.63662 | 106.75981 | 16607 ft | 362 kts | 226° |
| 2026-05-06 13:50 | -5.65884 | 106.73543 | 16085 ft | 348 kts | 226° |
| 2026-05-06 13:50 | -5.67506 | 106.71764 | 15730 ft | 336 kts | 226° |
| 2026-05-06 13:51 | -5.69078 | 106.70039 | 15241 ft | 330 kts | 226° |
| 2026-05-06 13:51 | -5.70109 | 106.68908 | 14884 ft | 327 kts | 226° |
| 2026-05-06 13:51 | -5.71627 | 106.67242 | 14337 ft | 324 kts | 226° |
| 2026-05-06 13:51 | -5.73141 | 106.65581 | 13767 ft | 321 kts | 226° |
| 2026-05-06 13:52 | -5.75001 | 106.63540 | 13057 ft | 318 kts | 226° |
| 2026-05-06 13:52 | -5.76491 | 106.61905 | 12513 ft | 315 kts | 226° |
| 2026-05-06 13:52 | -5.77958 | 106.60294 | 11982 ft | 312 kts | 226° |
| 2026-05-06 13:52 | -5.79404 | 106.58708 | 11465 ft | 309 kts | 226° |
| 2026-05-06 13:53 | -5.80856 | 106.57114 | 10933 ft | 306 kts | 226° |
| 2026-05-06 13:53 | -5.82285 | 106.55546 | 10417 ft | 303 kts | 226° |
| 2026-05-06 13:53 | -5.83692 | 106.54002 | 9919 ft | 300 kts | 226° |
| 2026-05-06 13:53 | -5.85096 | 106.52460 | 9443 ft | 296 kts | 226° |
| 2026-05-06 13:54 | -5.86471 | 106.50951 | 8966 ft | 292 kts | 226° |
| 2026-05-06 13:54 | -5.87852 | 106.49435 | 8493 ft | 289 kts | 226° |
| 2026-05-06 13:54 | -5.89200 | 106.47955 | 8008 ft | 287 kts | 226° |
| 2026-05-06 13:54 | -5.90552 | 106.46470 | 7526 ft | 284 kts | 226° |
| 2026-05-06 13:55 | -5.91881 | 106.45011 | 7108 ft | 280 kts | 226° |
| 2026-05-06 13:55 | -5.93199 | 106.43564 | 7050 ft | 278 kts | 226° |
| 2026-05-06 13:55 | -5.94459 | 106.42178 | 7042 ft | 264 kts | 226° |
| 2026-05-06 13:55 | -5.95674 | 106.40843 | 7025 ft | 251 kts | 226° |
| 2026-05-06 13:56 | -5.96852 | 106.39549 | 6839 ft | 247 kts | 226° |
| 2026-05-06 13:56 | -5.98008 | 106.38280 | 6538 ft | 248 kts | 226° |
| 2026-05-06 13:56 | -5.99171 | 106.37003 | 6288 ft | 246 kts | 226° |
| 2026-05-06 13:56 | -6.00328 | 106.35733 | 6023 ft | 245 kts | 226° |
| 2026-05-06 13:57 | -6.01476 | 106.34472 | 5752 ft | 244 kts | 226° |
| 2026-05-06 13:57 | -6.02619 | 106.33217 | 5485 ft | 244 kts | 226° |
| 2026-05-06 13:57 | -6.03913 | 106.32153 | 5209 ft | 240 kts | 204° |
| 2026-05-06 13:57 | -6.05493 | 106.31733 | 5019 ft | 231 kts | 178° |
| 2026-05-06 13:58 | -6.07112 | 106.31871 | 5005 ft | 232 kts | 169° |
| 2026-05-06 13:58 | -6.08714 | 106.32119 | 5004 ft | 230 kts | 167° |
| 2026-05-06 13:58 | -6.10288 | 106.32402 | 5002 ft | 230 kts | 168° |
| 2026-05-06 13:58 | -6.11883 | 106.32671 | 5002 ft | 230 kts | 167° |
| 2026-05-06 13:59 | -6.13469 | 106.32946 | 5003 ft | 230 kts | 167° |
| 2026-05-06 13:59 | -6.15043 | 106.33224 | 5002 ft | 230 kts | 167° |
| 2026-05-06 13:59 | -6.16636 | 106.33504 | 5001 ft | 230 kts | 167° |
| 2026-05-06 13:59 | -6.18223 | 106.33785 | 5003 ft | 231 kts | 167° |
| 2026-05-06 14:00 | -6.19772 | 106.34148 | 4992 ft | 227 kts | 151° |
| 2026-05-06 14:00 | -6.20981 | 106.35122 | 4951 ft | 224 kts | 127° |
| 2026-05-06 14:00 | -6.21889 | 106.36405 | 4664 ft | 226 kts | 120° |
| 2026-05-06 14:00 | -6.22723 | 106.37736 | 4385 ft | 225 kts | 120° |
| 2026-05-06 14:01 | -6.23508 | 106.39095 | 4131 ft | 223 kts | 111° |
| 2026-05-06 14:01 | -6.23695 | 106.40567 | 4002 ft | 208 kts | 77° |
| 2026-05-06 14:01 | -6.23280 | 106.41917 | 3996 ft | 194 kts | 70° |
| 2026-05-06 14:01 | -6.22812 | 106.43132 | 3997 ft | 181 kts | 69° |
| 2026-05-06 14:02 | -6.22340 | 106.44298 | 4000 ft | 176 kts | 68° |
| 2026-05-06 14:02 | -6.21870 | 106.45448 | 3826 ft | 178 kts | 68° |
| 2026-05-06 14:02 | -6.21404 | 106.46590 | 3606 ft | 175 kts | 68° |
| 2026-05-06 14:02 | -6.20946 | 106.47720 | 3390 ft | 173 kts | 69° |
| 2026-05-06 14:03 | -6.20497 | 106.48834 | 3172 ft | 170 kts | 69° |
| 2026-05-06 14:03 | -6.20058 | 106.49925 | 2959 ft | 168 kts | 69° |
| 2026-05-06 14:03 | -6.19623 | 106.51009 | 2748 ft | 165 kts | 68° |
| 2026-05-06 14:03 | -6.19198 | 106.52067 | 2544 ft | 161 kts | 68° |
| 2026-05-06 14:04 | -6.18793 | 106.53076 | 2338 ft | 150 kts | 68° |
| 2026-05-06 14:04 | -6.18385 | 106.54092 | 2143 ft | 148 kts | 68° |
| 2026-05-06 14:04 | -6.18004 | 106.55045 | 1956 ft | 148 kts | 68° |
| 2026-05-06 14:04 | -6.17620 | 106.56003 | 1762 ft | 146 kts | 68° |
| 2026-05-06 14:05 | -6.17240 | 106.56948 | 1570 ft | 143 kts | 68° |